createdAt,value
2022-12-26T00:04:54.493Z,102310.53
2022-12-26T00:09:51.485Z,102295.81
2022-12-26T00:14:49.207Z,102308.81
2022-12-26T00:19:46.283Z,102301.84
2022-12-26T00:24:43.099Z,102347.78
2022-12-26T00:29:39.926Z,102346.91
2022-12-26T00:34:40.616Z,102339.06
2022-12-26T00:39:37.866Z,102277.47
2022-12-26T00:44:34.651Z,102315.63
2022-12-26T00:50:11.310Z,102294.78
2022-12-26T00:54:49.000Z,102298.28
2022-12-26T00:59:45.848Z,102335.53
2022-12-26T01:04:42.956Z,102358.94
2022-12-26T01:09:40.020Z,102319.00
2022-12-26T01:14:37.667Z,102299.91
2022-12-26T01:19:34.509Z,102301.56
2022-12-26T01:24:31.631Z,102337.13
2022-12-26T01:29:28.573Z,102318.00
2022-12-26T01:34:26.277Z,102315.34
2022-12-26T01:39:23.550Z,102259.91
2022-12-26T01:44:57.968Z,102329.28
2022-12-26T01:49:56.360Z,102342.31
2022-12-26T01:54:55.226Z,102290.31
2022-12-26T01:59:53.141Z,102287.69
2022-12-26T02:05:10.389Z,102339.72
2022-12-26T02:10:13.088Z,102320.59
2022-12-26T02:15:12.692Z,102289.38
2022-12-26T02:20:18.089Z,102337.97
2022-12-26T02:25:45.636Z,102327.53
2022-12-26T02:30:49.522Z,102257.28
2022-12-26T02:36:16.356Z,102296.28
2022-12-26T02:41:26.270Z,102322.25
2022-12-26T02:46:50.853Z,102333.56
2022-12-26T02:52:18.214Z,102299.75
2022-12-26T02:57:43.280Z,102315.38
2022-12-26T03:03:04.156Z,102306.69
2022-12-26T03:08:20.840Z,102292.75
2022-12-26T03:13:23.108Z,102217.44
2022-12-26T03:18:59.001Z,102308.41
2022-12-26T03:23:42.799Z,102293.75
2022-12-26T03:28:41.305Z,102285.06
2022-12-26T03:33:59.462Z,102320.66
2022-12-26T03:39:08.021Z,102338.03
2022-12-26T03:44:38.455Z,102283.44
2022-12-26T03:50:02.582Z,102281.72
2022-12-26T03:55:25.068Z,102310.41
2022-12-26T04:00:40.584Z,102325.16
2022-12-26T04:06:00.767Z,102326.06
2022-12-26T04:11:19.878Z,102222.94
2022-12-26T04:16:37.601Z,102292.28
2022-12-26T04:22:02.905Z,102292.28
2022-12-26T04:27:23.980Z,102302.72
2022-12-26T04:32:47.605Z,102256.78
2022-12-26T04:38:04.960Z,102325.25
2022-12-26T04:43:49.424Z,102242.09
2022-12-26T04:49:02.184Z,102347.88
2022-12-26T04:53:59.703Z,102338.28
2022-12-26T04:58:57.975Z,102336.56
2022-12-26T05:04:13.100Z,102351.34
2022-12-26T05:09:31.618Z,102300.16
2022-12-26T05:14:28.742Z,102298.44
2022-12-26T05:19:43.367Z,102314.94
2022-12-26T05:24:59.935Z,102366.97
2022-12-26T05:29:56.986Z,102351.41
2022-12-26T05:34:53.824Z,102380.06
2022-12-26T05:39:51.427Z,102383.50
2022-12-26T05:44:48.251Z,102373.06
2022-12-26T05:49:45.262Z,102371.38
2022-12-26T05:54:42.175Z,102300.22
2022-12-26T05:59:39.931Z,102340.97
2022-12-26T06:04:36.888Z,102319.28
2022-12-26T06:09:33.888Z,102344.47
2022-12-26T06:14:30.784Z,102340.09
2022-12-26T06:19:28.449Z,102328.81
2022-12-26T06:24:25.409Z,102379.97
2022-12-26T06:29:23.072Z,102386.88
2022-12-26T06:34:20.049Z,102389.47
2022-12-26T06:39:17.544Z,102387.72
2022-12-26T06:44:18.093Z,102345.16
2022-12-26T06:49:15.833Z,102368.50
2022-12-26T06:54:12.787Z,102314.72
2022-12-26T06:59:11.583Z,102357.19
2022-12-26T07:04:09.840Z,102335.50
2022-12-26T07:09:09.239Z,102381.47
2022-12-26T07:14:06.552Z,102371.06
2022-12-26T07:19:07.667Z,102351.06
2022-12-26T07:24:04.942Z,102322.34
2022-12-26T07:29:01.882Z,102326.75
2022-12-26T07:33:58.901Z,102364.06
2022-12-26T07:38:56.877Z,102305.03
2022-12-26T07:43:53.872Z,102408.22
2022-12-26T07:48:50.789Z,102342.22
2022-12-26T07:53:48.380Z,102388.00
2022-12-26T07:58:49.635Z,102386.91
2022-12-26T08:03:48.098Z,102343.50
2022-12-26T08:08:50.544Z,102385.81
2022-12-26T08:13:52.294Z,102355.38
2022-12-26T08:18:51.117Z,102306.00
2022-12-26T08:23:48.038Z,102380.47
2022-12-26T08:28:48.521Z,102350.06
2022-12-26T08:33:46.214Z,102324.84
2022-12-26T08:38:46.727Z,102304.81
2022-12-26T08:44:25.201Z,102342.84
2022-12-26T08:49:02.192Z,102302.03
2022-12-26T08:53:58.999Z,102318.28
2022-12-26T08:58:56.121Z,102303.47
2022-12-26T09:03:53.766Z,102309.41
2022-12-26T09:08:51.997Z,102276.44
2022-12-26T09:13:49.582Z,102359.47
2022-12-26T09:18:47.680Z,102340.16
2022-12-26T09:23:45.226Z,102284.63
2022-12-26T09:28:43.401Z,102324.28
2022-12-26T09:33:42.612Z,102302.50
2022-12-26T09:38:39.610Z,102291.16
2022-12-26T09:43:53.062Z,102290.97
2022-12-26T09:48:58.097Z,102293.47
2022-12-26T09:53:56.037Z,102311.47
2022-12-26T09:58:57.395Z,102275.91
2022-12-26T10:03:56.283Z,102275.81
2022-12-26T10:09:07.170Z,102282.41
2022-12-26T10:14:15.148Z,102238.75
2022-12-26T10:19:53.452Z,102267.00
2022-12-26T10:24:52.031Z,102224.38
2022-12-26T10:29:55.281Z,102257.91
2022-12-26T10:34:53.394Z,102226.56
2022-12-26T10:39:56.012Z,102205.63
2022-12-26T10:44:55.549Z,102219.16
2022-12-26T10:49:53.788Z,102227.50
2022-12-26T10:55:28.857Z,102165.16
2022-12-26T11:00:20.151Z,102224.59
2022-12-26T11:05:48.499Z,102217.44
2022-12-26T11:10:40.691Z,102185.09
2022-12-26T11:15:41.917Z,102214.09
2022-12-26T11:20:38.841Z,102216.88
2022-12-26T11:25:48.285Z,102197.41
2022-12-26T11:30:47.993Z,102157.59
2022-12-26T11:35:55.208Z,102168.81
2022-12-26T11:41:06.664Z,102190.53
2022-12-26T11:46:04.574Z,102157.00
2022-12-26T11:51:01.922Z,102171.28
2022-12-26T11:56:01.262Z,102153.09
2022-12-26T12:01:10.150Z,102178.81
2022-12-26T12:06:19.966Z,102179.41
2022-12-26T12:11:25.440Z,102185.16
2022-12-26T12:16:51.941Z,102197.06
2022-12-26T12:22:08.428Z,102191.53
2022-12-26T12:27:13.472Z,102096.69
2022-12-26T12:32:17.341Z,102165.59
2022-12-26T12:37:52.627Z,102163.66
2022-12-26T12:42:59.440Z,102175.81
2022-12-26T12:48:11.636Z,102156.66
2022-12-26T12:53:22.494Z,102102.47
2022-12-26T12:58:27.401Z,102194.13
2022-12-26T13:03:39.362Z,102150.16
2022-12-26T13:08:42.855Z,102196.41
2022-12-26T13:13:48.526Z,102193.19
2022-12-26T13:18:53.807Z,102159.06
2022-12-26T13:24:26.915Z,102181.84
2022-12-26T13:29:35.842Z,102196.78
2022-12-26T13:34:38.454Z,102191.13
2022-12-26T13:39:39.512Z,102131.44
2022-12-26T13:44:37.316Z,102144.50
2022-12-26T13:49:38.444Z,102172.41
2022-12-26T13:54:58.325Z,102130.69
2022-12-26T14:00:14.425Z,102169.81
2022-12-26T14:05:21.934Z,102165.06
2022-12-26T14:10:25.187Z,102163.50
2022-12-26T14:15:33.510Z,102192.34
2022-12-26T14:20:41.460Z,102180.34
2022-12-26T14:25:52.155Z,102158.22
2022-12-26T14:30:59.687Z,102180.00
2022-12-26T14:36:08.009Z,102185.56
2022-12-26T14:41:08.470Z,102181.47
2022-12-26T14:46:46.577Z,102103.31
2022-12-26T14:51:43.874Z,102153.91
2022-12-26T14:56:41.725Z,102187.97
2022-12-26T15:02:02.285Z,102145.81
2022-12-26T15:07:36.261Z,102184.16
2022-12-26T15:13:17.525Z,102191.59
2022-12-26T15:18:47.910Z,102176.13
2022-12-26T15:25:08.648Z,102149.78
2022-12-26T15:30:33.437Z,102175.03
2022-12-26T15:35:46.313Z,102144.97
2022-12-26T15:40:46.104Z,102137.34
2022-12-26T15:45:48.657Z,102145.25
2022-12-26T15:50:56.779Z,102135.06
2022-12-26T15:56:07.896Z,102162.09
2022-12-26T16:01:11.437Z,102160.56
2022-12-26T16:06:27.119Z,102055.16
2022-12-26T16:11:29.375Z,102141.66
2022-12-26T16:16:32.380Z,102096.88
2022-12-26T16:21:52.665Z,102095.22
2022-12-26T16:26:51.235Z,102106.69
2022-12-26T16:31:50.549Z,102121.50
2022-12-26T16:36:50.773Z,102117.38
2022-12-26T16:42:04.438Z,102140.72
2022-12-26T16:47:05.226Z,102131.28
2022-12-26T16:52:04.034Z,102124.41
2022-12-26T16:57:06.126Z,102111.56
2022-12-26T17:02:03.545Z,102090.03
2022-12-26T17:07:08.095Z,102115.84
2022-12-26T17:12:08.190Z,102069.16
2022-12-26T17:17:25.939Z,101997.56
2022-12-26T17:22:34.138Z,102108.84
2022-12-26T17:27:33.408Z,102011.41
2022-12-26T17:32:35.514Z,102032.16
2022-12-26T17:37:34.373Z,102016.59
2022-12-26T17:42:43.733Z,102083.06
2022-12-26T17:47:41.263Z,102090.00
2022-12-26T17:52:40.938Z,102127.25
2022-12-26T17:57:38.007Z,102082.34
2022-12-26T18:02:36.762Z,102080.47
2022-12-26T18:07:35.576Z,102023.63
2022-12-26T18:12:43.487Z,102034.78
2022-12-26T18:17:40.930Z,102106.53
2022-12-26T18:22:38.231Z,102099.63
2022-12-26T18:27:35.414Z,102100.53
2022-12-26T18:32:34.162Z,102072.91
2022-12-26T18:37:31.737Z,102060.06
2022-12-26T18:42:31.199Z,102027.25
2022-12-26T18:47:30.925Z,101999.53
2022-12-26T18:52:28.690Z,102062.53
2022-12-26T18:57:25.756Z,102058.22
2022-12-26T19:02:22.829Z,102019.41
2022-12-26T19:07:22.971Z,101983.97
2022-12-26T19:12:21.558Z,102053.09
2022-12-26T19:17:21.358Z,102050.56
2022-12-26T19:22:18.266Z,101988.50
2022-12-26T19:27:15.532Z,102043.66
2022-12-26T19:32:13.185Z,102006.56
2022-12-26T19:37:10.311Z,101962.66
2022-12-26T19:42:07.440Z,102018.75
2022-12-26T19:47:11.868Z,102020.50
2022-12-26T19:52:11.004Z,102042.97
2022-12-26T19:57:08.275Z,101979.97
2022-12-26T20:02:10.900Z,102017.19
2022-12-26T20:07:08.218Z,102055.28
2022-12-26T20:12:06.241Z,102007.00
2022-12-26T20:17:08.979Z,102009.63
2022-12-26T20:22:12.692Z,102037.41
2022-12-26T20:27:17.188Z,101984.78
2022-12-26T20:32:14.106Z,102026.28
2022-12-26T20:37:11.165Z,102050.59
2022-12-26T20:42:08.263Z,101989.25
2022-12-26T20:47:06.242Z,102059.28
2022-12-26T20:52:03.601Z,102033.31
2022-12-26T20:57:02.423Z,102055.75
2022-12-26T21:01:59.500Z,101956.34
2022-12-26T21:06:58.950Z,102048.72
2022-12-26T21:11:56.103Z,102021.97
2022-12-26T21:16:56.635Z,101971.13
2022-12-26T21:21:58.211Z,102024.81
2022-12-26T21:27:24.099Z,101922.16
2022-12-26T21:32:21.076Z,102021.41
2022-12-26T21:37:36.657Z,102036.09
2022-12-26T21:42:33.591Z,102027.44
2022-12-26T21:47:30.504Z,101968.59
2022-12-26T21:52:28.012Z,101917.59
2022-12-26T21:57:25.316Z,101978.84
2022-12-26T22:02:43.324Z,101949.41
2022-12-26T22:07:41.390Z,101939.03
2022-12-26T22:12:56.308Z,101990.84
2022-12-26T22:17:58.997Z,101984.78
2022-12-26T22:22:56.632Z,101925.91
2022-12-26T22:27:53.536Z,101964.84
2022-12-26T22:32:50.502Z,101930.28
2022-12-26T22:37:47.411Z,101938.94
2022-12-26T22:42:45.073Z,101899.25
2022-12-26T22:47:42.119Z,101944.16
2022-12-26T22:52:39.062Z,101935.59
2022-12-26T22:57:36.481Z,101915.84
2022-12-26T23:02:34.361Z,101944.41
2022-12-26T23:07:33.358Z,101947.09
2022-12-26T23:12:46.037Z,101900.56
2022-12-26T23:18:06.420Z,101945.50
2022-12-26T23:23:03.813Z,101905.78
2022-12-26T23:28:18.415Z,101936.84
2022-12-26T23:33:15.986Z,101916.13
2022-12-26T23:38:12.898Z,101930.81
2022-12-26T23:43:09.868Z,101872.03
2022-12-26T23:48:06.727Z,101912.59
2022-12-26T23:53:04.569Z,101912.59
2022-12-26T23:58:01.379Z,101840.06
